Salisbury, Maryland
Current Conditions -  °F | °C
As of 7:54 PM on Wednesday 22 Oct 2014 (Local Time) from KSBY Reporting Station
Light Rain Light Rain  
Wind Chill: 56°   Ceiling: 1300
Heat Index: 56°   Visibility: 9mi
Dew Point: 51°   Wind: 22mph
Humidity: 84%   Direction: 330°NNW
Pressure: 29.82"   Gusts: 31mph
Location:  38.37°N, 75.59°W
Report Text: KSBY 222354Z 33019G27KT 9SM -RA OVC013 13/11 A2982 RMK AO2 PK WND 32027/2354 SLP099 P0000 60000 T01330106 10167 20133 51009
Loading
Personal Weather Stations






























Interactive Weather Map
Tropical Storm Tracking
New forecast layout! Learn more

10-Day Weather Forecast

Advertisements
Track Severe Weather on mobile